sensor_id;sensor_type;location;lat;lon;timestamp;P1;durP1;ratioP1;P2;durP2;ratioP2
10007;SDS011;5043;41.766;26.204;2022-08-19T00:00:28;6.25;;;5.75;;
10007;SDS011;5043;41.766;26.204;2022-08-19T00:02:54;14.02;;;6.65;;
10007;SDS011;5043;41.766;26.204;2022-08-19T00:05:20;7.53;;;5.97;;
10007;SDS011;5043;41.766;26.204;2022-08-19T00:07:47;8.88;;;6.05;;
10007;SDS011;5043;41.766;26.204;2022-08-19T00:10:14;8.43;;;6.32;;
10007;SDS011;5043;41.766;26.204;2022-08-19T00:12:41;9.07;;;6.00;;
10007;SDS011;5043;41.766;26.204;2022-08-19T00:15:08;8.65;;;5.72;;
10007;SDS011;5043;41.766;26.204;2022-08-19T00:17:37;9.15;;;6.15;;
10007;SDS011;5043;41.766;26.204;2022-08-19T00:20:04;10.65;;;6.82;;
10007;SDS011;5043;41.766;26.204;2022-08-19T00:22:30;7.55;;;6.38;;
10007;SDS011;5043;41.766;26.204;2022-08-19T00:24:56;8.23;;;6.35;;
10007;SDS011;5043;41.766;26.204;2022-08-19T00:27:21;9.75;;;6.35;;
10007;SDS011;5043;41.766;26.204;2022-08-19T00:29:47;6.97;;;6.18;;
10007;SDS011;5043;41.766;26.204;2022-08-19T00:32:13;9.52;;;6.68;;
10007;SDS011;5043;41.766;26.204;2022-08-19T00:34:38;11.32;;;6.90;;
10007;SDS011;5043;41.766;26.204;2022-08-19T00:37:04;7.07;;;6.40;;
10007;SDS011;5043;41.766;26.204;2022-08-19T00:39:29;9.95;;;7.22;;
10007;SDS011;5043;41.766;26.204;2022-08-19T00:41:55;9.45;;;7.10;;
10007;SDS011;5043;41.766;26.204;2022-08-19T00:44:23;7.82;;;6.40;;
10007;SDS011;5043;41.766;26.204;2022-08-19T00:46:52;7.97;;;6.90;;
10007;SDS011;5043;41.766;26.204;2022-08-19T00:49:27;8.98;;;7.00;;
10007;SDS011;5043;41.766;26.204;2022-08-19T00:52:09;7.47;;;6.78;;
10007;SDS011;5043;41.766;26.204;2022-08-19T00:54:37;9.90;;;6.68;;
10007;SDS011;5043;41.766;26.204;2022-08-19T00:57:04;8.52;;;6.88;;
10007;SDS011;5043;41.766;26.204;2022-08-19T00:59:34;7.82;;;7.13;;
10007;SDS011;5043;41.766;26.204;2022-08-19T01:02:02;8.48;;;6.78;;
10007;SDS011;5043;41.766;26.204;2022-08-19T01:04:28;6.95;;;6.35;;
10007;SDS011;5043;41.766;26.204;2022-08-19T01:06:54;8.88;;;7.30;;
10007;SDS011;5043;41.766;26.204;2022-08-19T01:09:21;10.80;;;6.85;;
10007;SDS011;5043;41.766;26.204;2022-08-19T01:11:46;8.93;;;7.18;;
10007;SDS011;5043;41.766;26.204;2022-08-19T01:14:12;19.88;;;7.10;;
10007;SDS011;5043;41.766;26.204;2022-08-19T01:16:39;10.57;;;6.53;;
10007;SDS011;5043;41.766;26.204;2022-08-19T01:19:10;12.23;;;6.45;;
10007;SDS011;5043;41.766;26.204;2022-08-19T01:21:47;9.88;;;7.15;;
10007;SDS011;5043;41.766;26.204;2022-08-19T01:24:19;11.63;;;6.10;;
10007;SDS011;5043;41.766;26.204;2022-08-19T01:26:46;11.90;;;6.55;;
10007;SDS011;5043;41.766;26.204;2022-08-19T01:29:12;7.53;;;6.32;;
10007;SDS011;5043;41.766;26.204;2022-08-19T01:31:38;6.93;;;6.22;;
10007;SDS011;5043;41.766;26.204;2022-08-19T01:34:04;9.40;;;6.40;;
10007;SDS011;5043;41.766;26.204;2022-08-19T01:36:35;12.77;;;6.78;;
10007;SDS011;5043;41.766;26.204;2022-08-19T01:39:05;7.47;;;6.05;;
10007;SDS011;5043;41.766;26.204;2022-08-19T01:41:33;10.02;;;6.40;;
10007;SDS011;5043;41.766;26.204;2022-08-19T01:43:59;6.97;;;6.25;;
10007;SDS011;5043;41.766;26.204;2022-08-19T01:46:28;10.98;;;6.90;;
10007;SDS011;5043;41.766;26.204;2022-08-19T01:48:54;7.90;;;6.43;;
10007;SDS011;5043;41.766;26.204;2022-08-19T01:51:19;8.38;;;6.43;;
10007;SDS011;5043;41.766;26.204;2022-08-19T01:53:48;9.45;;;6.53;;
10007;SDS011;5043;41.766;26.204;2022-08-19T01:56:14;8.77;;;6.20;;
10007;SDS011;5043;41.766;26.204;2022-08-19T01:58:41;8.32;;;6.80;;
10007;SDS011;5043;41.766;26.204;2022-08-19T02:01:15;8.38;;;6.63;;
10007;SDS011;5043;41.766;26.204;2022-08-19T02:03:42;7.18;;;6.47;;
10007;SDS011;5043;41.766;26.204;2022-08-19T02:06:07;7.53;;;6.68;;
10007;SDS011;5043;41.766;26.204;2022-08-19T02:08:35;11.50;;;7.40;;
10007;SDS011;5043;41.766;26.204;2022-08-19T02:11:05;8.10;;;7.30;;
10007;SDS011;5043;41.766;26.204;2022-08-19T02:13:32;9.50;;;6.68;;
10007;SDS011;5043;41.766;26.204;2022-08-19T02:15:59;11.18;;;6.35;;
10007;SDS011;5043;41.766;26.204;2022-08-19T02:18:25;7.50;;;6.75;;
10007;SDS011;5043;41.766;26.204;2022-08-19T02:20:53;7.80;;;6.90;;
10007;SDS011;5043;41.766;26.204;2022-08-19T02:23:18;9.98;;;6.47;;
10007;SDS011;5043;41.766;26.204;2022-08-19T02:25:45;8.75;;;6.68;;
10007;SDS011;5043;41.766;26.204;2022-08-19T02:28:13;7.25;;;6.60;;
10007;SDS011;5043;41.766;26.204;2022-08-19T02:30:40;10.20;;;6.95;;
10007;SDS011;5043;41.766;26.204;2022-08-19T02:33:06;9.60;;;6.60;;
10007;SDS011;5043;41.766;26.204;2022-08-19T02:35:32;8.18;;;6.47;;
10007;SDS011;5043;41.766;26.204;2022-08-19T02:37:57;7.10;;;6.40;;
10007;SDS011;5043;41.766;26.204;2022-08-19T02:40:47;7.88;;;7.10;;
10007;SDS011;5043;41.766;26.204;2022-08-19T02:43:16;7.13;;;6.43;;
10007;SDS011;5043;41.766;26.204;2022-08-19T02:45:42;9.88;;;6.82;;
10007;SDS011;5043;41.766;26.204;2022-08-19T02:48:08;8.13;;;7.43;;
10007;SDS011;5043;41.766;26.204;2022-08-19T02:50:36;8.52;;;7.30;;
10007;SDS011;5043;41.766;26.204;2022-08-19T02:53:03;11.23;;;8.07;;
10007;SDS011;5043;41.766;26.204;2022-08-19T02:55:29;10.77;;;8.40;;
10007;SDS011;5043;41.766;26.204;2022-08-19T02:57:54;9.35;;;8.27;;
10007;SDS011;5043;41.766;26.204;2022-08-19T03:00:19;9.73;;;8.18;;
10007;SDS011;5043;41.766;26.204;2022-08-19T03:02:45;9.80;;;8.82;;
10007;SDS011;5043;41.766;26.204;2022-08-19T03:05:11;9.30;;;7.57;;
10007;SDS011;5043;41.766;26.204;2022-08-19T03:07:37;8.77;;;7.80;;
10007;SDS011;5043;41.766;26.204;2022-08-19T03:10:03;8.70;;;7.90;;
10007;SDS011;5043;41.766;26.204;2022-08-19T03:12:29;8.13;;;7.30;;
10007;SDS011;5043;41.766;26.204;2022-08-19T03:14:55;9.30;;;7.35;;
10007;SDS011;5043;41.766;26.204;2022-08-19T03:17:21;8.80;;;8.00;;
10007;SDS011;5043;41.766;26.204;2022-08-19T03:19:46;11.75;;;8.15;;
10007;SDS011;5043;41.766;26.204;2022-08-19T03:22:12;9.60;;;8.25;;
10007;SDS011;5043;41.766;26.204;2022-08-19T03:24:38;8.65;;;7.75;;
10007;SDS011;5043;41.766;26.204;2022-08-19T03:27:03;8.95;;;7.22;;
10007;SDS011;5043;41.766;26.204;2022-08-19T03:29:29;12.27;;;7.82;;
10007;SDS011;5043;41.766;26.204;2022-08-19T03:31:57;9.55;;;7.88;;
10007;SDS011;5043;41.766;26.204;2022-08-19T03:34:28;11.15;;;8.02;;
10007;SDS011;5043;41.766;26.204;2022-08-19T03:36:56;12.57;;;7.65;;
10007;SDS011;5043;41.766;26.204;2022-08-19T03:39:23;9.07;;;7.53;;
10007;SDS011;5043;41.766;26.204;2022-08-19T03:41:50;7.70;;;6.97;;
10007;SDS011;5043;41.766;26.204;2022-08-19T03:44:19;11.48;;;7.80;;
10007;SDS011;5043;41.766;26.204;2022-08-19T03:46:55;8.88;;;8.00;;
10007;SDS011;5043;41.766;26.204;2022-08-19T03:49:25;8.63;;;7.43;;
10007;SDS011;5043;41.766;26.204;2022-08-19T03:51:54;14.57;;;8.40;;
10007;SDS011;5043;41.766;26.204;2022-08-19T03:54:22;9.48;;;7.43;;
10007;SDS011;5043;41.766;26.204;2022-08-19T03:56:51;13.18;;;8.13;;
10007;SDS011;5043;41.766;26.204;2022-08-19T03:59:18;11.20;;;7.47;;
10007;SDS011;5043;41.766;26.204;2022-08-19T04:01:46;17.20;;;8.57;;
10007;SDS011;5043;41.766;26.204;2022-08-19T04:04:12;9.68;;;7.40;;
10007;SDS011;5043;41.766;26.204;2022-08-19T04:06:38;13.93;;;8.05;;
10007;SDS011;5043;41.766;26.204;2022-08-19T04:09:05;10.35;;;8.15;;
10007;SDS011;5043;41.766;26.204;2022-08-19T04:11:34;10.57;;;8.13;;
10007;SDS011;5043;41.766;26.204;2022-08-19T04:14:09;10.57;;;9.25;;
10007;SDS011;5043;41.766;26.204;2022-08-19T04:16:36;15.90;;;8.15;;
10007;SDS011;5043;41.766;26.204;2022-08-19T04:19:02;10.68;;;7.57;;
10007;SDS011;5043;41.766;26.204;2022-08-19T04:21:29;10.23;;;8.00;;
10007;SDS011;5043;41.766;26.204;2022-08-19T04:23:55;10.43;;;8.30;;
10007;SDS011;5043;41.766;26.204;2022-08-19T04:26:26;9.52;;;8.55;;
10007;SDS011;5043;41.766;26.204;2022-08-19T04:28:57;11.18;;;8.35;;
10007;SDS011;5043;41.766;26.204;2022-08-19T04:31:25;9.40;;;8.23;;
10007;SDS011;5043;41.766;26.204;2022-08-19T04:33:55;8.85;;;7.95;;
10007;SDS011;5043;41.766;26.204;2022-08-19T04:36:23;12.80;;;7.53;;
10007;SDS011;5043;41.766;26.204;2022-08-19T04:38:53;13.32;;;7.93;;
10007;SDS011;5043;41.766;26.204;2022-08-19T04:41:25;15.27;;;8.75;;
10007;SDS011;5043;41.766;26.204;2022-08-19T04:44:10;10.05;;;8.63;;
10007;SDS011;5043;41.766;26.204;2022-08-19T04:46:36;9.38;;;8.48;;
10007;SDS011;5043;41.766;26.204;2022-08-19T04:49:02;17.13;;;8.25;;
10007;SDS011;5043;41.766;26.204;2022-08-19T04:51:30;12.43;;;8.02;;
10007;SDS011;5043;41.766;26.204;2022-08-19T04:53:57;9.75;;;8.45;;
10007;SDS011;5043;41.766;26.204;2022-08-19T04:56:24;13.75;;;9.20;;
10007;SDS011;5043;41.766;26.204;2022-08-19T04:58:51;8.65;;;7.85;;
10007;SDS011;5043;41.766;26.204;2022-08-19T05:01:18;10.13;;;7.82;;
10007;SDS011;5043;41.766;26.204;2022-08-19T05:03:46;10.27;;;8.05;;
10007;SDS011;5043;41.766;26.204;2022-08-19T05:06:13;12.43;;;8.52;;
10007;SDS011;5043;41.766;26.204;2022-08-19T05:08:41;15.63;;;8.48;;
10007;SDS011;5043;41.766;26.204;2022-08-19T05:11:10;8.60;;;7.80;;
10007;SDS011;5043;41.766;26.204;2022-08-19T05:13:37;11.65;;;8.07;;
10007;SDS011;5043;41.766;26.204;2022-08-19T05:16:03;8.93;;;8.10;;
10007;SDS011;5043;41.766;26.204;2022-08-19T05:18:29;14.63;;;8.18;;
10007;SDS011;5043;41.766;26.204;2022-08-19T05:21:14;9.35;;;7.45;;
10007;SDS011;5043;41.766;26.204;2022-08-19T05:24:00;9.65;;;7.38;;
10007;SDS011;5043;41.766;26.204;2022-08-19T05:26:27;11.30;;;7.90;;
10007;SDS011;5043;41.766;26.204;2022-08-19T05:28:52;8.23;;;7.43;;
10007;SDS011;5043;41.766;26.204;2022-08-19T05:31:19;9.88;;;8.07;;
10007;SDS011;5043;41.766;26.204;2022-08-19T05:33:45;10.40;;;8.32;;
10007;SDS011;5043;41.766;26.204;2022-08-19T05:36:10;9.07;;;7.22;;
10007;SDS011;5043;41.766;26.204;2022-08-19T05:38:36;10.75;;;8.13;;
10007;SDS011;5043;41.766;26.204;2022-08-19T05:41:07;10.00;;;8.07;;
10007;SDS011;5043;41.766;26.204;2022-08-19T05:43:34;11.15;;;8.15;;
10007;SDS011;5043;41.766;26.204;2022-08-19T05:45:59;9.55;;;7.88;;
10007;SDS011;5043;41.766;26.204;2022-08-19T05:48:25;9.57;;;7.57;;
10007;SDS011;5043;41.766;26.204;2022-08-19T05:50:51;8.05;;;7.25;;
10007;SDS011;5043;41.766;26.204;2022-08-19T05:53:17;8.57;;;7.65;;
10007;SDS011;5043;41.766;26.204;2022-08-19T05:55:43;11.98;;;7.15;;
10007;SDS011;5043;41.766;26.204;2022-08-19T05:58:08;12.77;;;7.95;;
10007;SDS011;5043;41.766;26.204;2022-08-19T06:00:35;11.88;;;8.88;;
10007;SDS011;5043;41.766;26.204;2022-08-19T06:03:02;8.88;;;7.88;;
10007;SDS011;5043;41.766;26.204;2022-08-19T06:05:31;9.52;;;8.27;;
10007;SDS011;5043;41.766;26.204;2022-08-19T06:07:59;13.90;;;7.55;;
10007;SDS011;5043;41.766;26.204;2022-08-19T06:10:25;11.07;;;7.82;;
10007;SDS011;5043;41.766;26.204;2022-08-19T06:12:51;9.25;;;7.70;;
10007;SDS011;5043;41.766;26.204;2022-08-19T06:15:17;8.63;;;7.72;;
10007;SDS011;5043;41.766;26.204;2022-08-19T06:17:43;11.05;;;7.82;;
10007;SDS011;5043;41.766;26.204;2022-08-19T06:20:12;9.57;;;8.10;;
10007;SDS011;5043;41.766;26.204;2022-08-19T06:22:45;12.07;;;7.88;;
10007;SDS011;5043;41.766;26.204;2022-08-19T06:25:17;11.45;;;7.03;;
10007;SDS011;5043;41.766;26.204;2022-08-19T06:27:43;9.15;;;7.93;;
10007;SDS011;5043;41.766;26.204;2022-08-19T06:30:09;8.13;;;7.32;;
10007;SDS011;5043;41.766;26.204;2022-08-19T06:32:36;9.80;;;7.25;;
10007;SDS011;5043;41.766;26.204;2022-08-19T06:35:01;12.77;;;7.28;;
10007;SDS011;5043;41.766;26.204;2022-08-19T06:37:30;14.60;;;7.68;;
10007;SDS011;5043;41.766;26.204;2022-08-19T06:39:56;8.30;;;6.55;;
10007;SDS011;5043;41.766;26.204;2022-08-19T06:42:21;7.50;;;6.80;;
10007;SDS011;5043;41.766;26.204;2022-08-19T06:44:47;14.40;;;7.57;;
10007;SDS011;5043;41.766;26.204;2022-08-19T06:47:15;9.02;;;6.72;;
10007;SDS011;5043;41.766;26.204;2022-08-19T06:49:44;9.60;;;7.03;;
10007;SDS011;5043;41.766;26.204;2022-08-19T06:52:10;11.05;;;7.78;;
10007;SDS011;5043;41.766;26.204;2022-08-19T06:54:40;8.98;;;7.55;;
10007;SDS011;5043;41.766;26.204;2022-08-19T06:57:07;9.98;;;6.95;;
10007;SDS011;5043;41.766;26.204;2022-08-19T06:59:34;7.68;;;6.85;;
10007;SDS011;5043;41.766;26.204;2022-08-19T07:02:04;7.63;;;6.95;;
10007;SDS011;5043;41.766;26.204;2022-08-19T07:04:31;9.02;;;6.88;;
10007;SDS011;5043;41.766;26.204;2022-08-19T07:07:02;9.02;;;6.63;;
10007;SDS011;5043;41.766;26.204;2022-08-19T07:09:35;7.88;;;6.82;;
10007;SDS011;5043;41.766;26.204;2022-08-19T07:12:03;9.32;;;6.57;;
10007;SDS011;5043;41.766;26.204;2022-08-19T07:14:31;9.00;;;7.43;;
10007;SDS011;5043;41.766;26.204;2022-08-19T07:17:02;7.32;;;6.63;;
10007;SDS011;5043;41.766;26.204;2022-08-19T07:19:30;12.60;;;6.22;;
10007;SDS011;5043;41.766;26.204;2022-08-19T07:21:57;5.70;;;5.20;;
10007;SDS011;5043;41.766;26.204;2022-08-19T07:24:25;10.85;;;6.78;;
10007;SDS011;5043;41.766;26.204;2022-08-19T07:26:52;7.63;;;6.93;;
10007;SDS011;5043;41.766;26.204;2022-08-19T07:29:20;8.68;;;6.43;;
10007;SDS011;5043;41.766;26.204;2022-08-19T07:31:48;11.00;;;7.30;;
10007;SDS011;5043;41.766;26.204;2022-08-19T07:34:15;8.77;;;6.18;;
10007;SDS011;5043;41.766;26.204;2022-08-19T07:36:41;6.88;;;5.65;;
10007;SDS011;5043;41.766;26.204;2022-08-19T07:39:19;8.27;;;5.95;;
10007;SDS011;5043;41.766;26.204;2022-08-19T07:41:49;9.98;;;6.00;;
10007;SDS011;5043;41.766;26.204;2022-08-19T07:44:18;6.75;;;5.88;;
10007;SDS011;5043;41.766;26.204;2022-08-19T07:46:46;8.00;;;5.80;;
10007;SDS011;5043;41.766;26.204;2022-08-19T07:49:15;7.97;;;5.75;;
10007;SDS011;5043;41.766;26.204;2022-08-19T07:51:45;8.70;;;6.72;;
10007;SDS011;5043;41.766;26.204;2022-08-19T07:54:15;7.70;;;5.55;;
10007;SDS011;5043;41.766;26.204;2022-08-19T07:56:42;9.90;;;5.70;;
10007;SDS011;5043;41.766;26.204;2022-08-19T07:59:07;10.90;;;6.05;;
10007;SDS011;5043;41.766;26.204;2022-08-19T08:01:34;6.78;;;6.15;;
10007;SDS011;5043;41.766;26.204;2022-08-19T08:04:00;6.75;;;5.68;;
10007;SDS011;5043;41.766;26.204;2022-08-19T08:06:44;6.03;;;5.57;;
10007;SDS011;5043;41.766;26.204;2022-08-19T08:09:33;7.43;;;6.18;;
10007;SDS011;5043;41.766;26.204;2022-08-19T08:12:11;8.07;;;5.88;;
10007;SDS011;5043;41.766;26.204;2022-08-19T08:14:40;9.77;;;5.38;;
10007;SDS011;5043;41.766;26.204;2022-08-19T08:17:09;8.77;;;5.60;;
10007;SDS011;5043;41.766;26.204;2022-08-19T08:19:35;6.25;;;5.70;;
10007;SDS011;5043;41.766;26.204;2022-08-19T08:22:01;6.53;;;5.80;;
10007;SDS011;5043;41.766;26.204;2022-08-19T08:24:29;7.72;;;6.35;;
10007;SDS011;5043;41.766;26.204;2022-08-19T08:26:56;9.93;;;5.85;;
10007;SDS011;5043;41.766;26.204;2022-08-19T08:29:24;6.50;;;5.57;;
10007;SDS011;5043;41.766;26.204;2022-08-19T08:31:54;6.13;;;5.63;;
10007;SDS011;5043;41.766;26.204;2022-08-19T08:34:20;6.03;;;5.45;;
10007;SDS011;5043;41.766;26.204;2022-08-19T08:36:46;7.47;;;5.80;;
10007;SDS011;5043;41.766;26.204;2022-08-19T08:39:16;7.07;;;5.60;;
10007;SDS011;5043;41.766;26.204;2022-08-19T08:44:16;10.25;;;5.50;;
10007;SDS011;5043;41.766;26.204;2022-08-19T08:46:47;8.65;;;5.68;;
10007;SDS011;5043;41.766;26.204;2022-08-19T08:55:03;6.38;;;4.60;;
10007;SDS011;5043;41.766;26.204;2022-08-19T09:00:30;6.25;;;5.60;;
10007;SDS011;5043;41.766;26.204;2022-08-19T09:02:58;6.30;;;5.70;;
10007;SDS011;5043;41.766;26.204;2022-08-19T09:05:30;6.10;;;5.50;;
10007;SDS011;5043;41.766;26.204;2022-08-19T09:08:11;5.90;;;5.22;;
10007;SDS011;5043;41.766;26.204;2022-08-19T09:10:46;6.35;;;5.60;;
10007;SDS011;5043;41.766;26.204;2022-08-19T09:15:45;9.25;;;5.70;;
10007;SDS011;5043;41.766;26.204;2022-08-19T09:18:16;7.95;;;5.50;;
10007;SDS011;5043;41.766;26.204;2022-08-19T09:20:42;6.40;;;5.35;;
10007;SDS011;5043;41.766;26.204;2022-08-19T09:23:07;7.25;;;5.68;;
10007;SDS011;5043;41.766;26.204;2022-08-19T09:25:33;5.97;;;5.15;;
10007;SDS011;5043;41.766;26.204;2022-08-19T09:27:59;5.68;;;5.18;;
10007;SDS011;5043;41.766;26.204;2022-08-19T09:30:28;6.32;;;5.50;;
10007;SDS011;5043;41.766;26.204;2022-08-19T09:32:58;7.30;;;5.70;;
10007;SDS011;5043;41.766;26.204;2022-08-19T09:35:25;7.03;;;5.50;;
10007;SDS011;5043;41.766;26.204;2022-08-19T09:37:54;7.05;;;5.10;;
10007;SDS011;5043;41.766;26.204;2022-08-19T09:40:21;6.00;;;5.40;;
10007;SDS011;5043;41.766;26.204;2022-08-19T09:42:48;6.05;;;5.07;;
10007;SDS011;5043;41.766;26.204;2022-08-19T09:45:14;5.70;;;4.65;;
10007;SDS011;5043;41.766;26.204;2022-08-19T09:47:40;3.75;;;3.45;;
10007;SDS011;5043;41.766;26.204;2022-08-19T09:50:06;4.90;;;4.50;;
10007;SDS011;5043;41.766;26.204;2022-08-19T09:52:33;7.05;;;4.15;;
10007;SDS011;5043;41.766;26.204;2022-08-19T09:55:03;4.55;;;4.07;;
10007;SDS011;5043;41.766;26.204;2022-08-19T09:57:29;4.15;;;3.80;;
10007;SDS011;5043;41.766;26.204;2022-08-19T09:59:55;6.80;;;3.90;;
10007;SDS011;5043;41.766;26.204;2022-08-19T10:02:20;4.43;;;4.03;;
10007;SDS011;5043;41.766;26.204;2022-08-19T10:04:46;8.25;;;4.00;;
10007;SDS011;5043;41.766;26.204;2022-08-19T10:07:30;5.60;;;3.92;;
10007;SDS011;5043;41.766;26.204;2022-08-19T10:09:56;4.30;;;3.90;;
10007;SDS011;5043;41.766;26.204;2022-08-19T10:12:21;4.38;;;3.92;;
10007;SDS011;5043;41.766;26.204;2022-08-19T10:14:47;4.63;;;3.70;;
10007;SDS011;5043;41.766;26.204;2022-08-19T10:17:13;8.63;;;4.35;;
10007;SDS011;5043;41.766;26.204;2022-08-19T10:19:39;4.57;;;3.80;;
10007;SDS011;5043;41.766;26.204;2022-08-19T10:22:06;4.10;;;3.70;;
10007;SDS011;5043;41.766;26.204;2022-08-19T10:24:32;9.77;;;4.32;;
10007;SDS011;5043;41.766;26.204;2022-08-19T10:26:59;4.88;;;3.58;;
10007;SDS011;5043;41.766;26.204;2022-08-19T10:29:28;4.85;;;3.90;;
10007;SDS011;5043;41.766;26.204;2022-08-19T10:31:54;7.57;;;3.90;;
10007;SDS011;5043;41.766;26.204;2022-08-19T10:34:21;4.05;;;3.70;;
10007;SDS011;5043;41.766;26.204;2022-08-19T10:36:47;5.07;;;3.90;;
10007;SDS011;5043;41.766;26.204;2022-08-19T10:39:13;6.07;;;4.32;;
10007;SDS011;5043;41.766;26.204;2022-08-19T10:41:39;3.97;;;3.67;;
10007;SDS011;5043;41.766;26.204;2022-08-19T10:44:06;5.03;;;3.58;;
10007;SDS011;5043;41.766;26.204;2022-08-19T10:46:34;7.50;;;4.40;;
10007;SDS011;5043;41.766;26.204;2022-08-19T10:49:03;4.18;;;3.78;;
10007;SDS011;5043;41.766;26.204;2022-08-19T10:51:30;4.40;;;4.10;;
10007;SDS011;5043;41.766;26.204;2022-08-19T10:54:16;4.32;;;3.95;;
10007;SDS011;5043;41.766;26.204;2022-08-19T10:56:42;5.32;;;3.95;;
10007;SDS011;5043;41.766;26.204;2022-08-19T10:59:18;5.63;;;3.67;;
10007;SDS011;5043;41.766;26.204;2022-08-19T11:01:48;4.43;;;4.03;;
10007;SDS011;5043;41.766;26.204;2022-08-19T11:04:15;5.70;;;3.70;;
10007;SDS011;5043;41.766;26.204;2022-08-19T11:06:46;6.82;;;3.90;;
10007;SDS011;5043;41.766;26.204;2022-08-19T11:09:18;4.30;;;3.83;;
10007;SDS011;5043;41.766;26.204;2022-08-19T11:11:45;7.13;;;3.95;;
10007;SDS011;5043;41.766;26.204;2022-08-19T11:14:13;6.30;;;3.90;;
10007;SDS011;5043;41.766;26.204;2022-08-19T11:16:40;7.45;;;4.38;;
10007;SDS011;5043;41.766;26.204;2022-08-19T11:19:07;5.85;;;3.60;;
10007;SDS011;5043;41.766;26.204;2022-08-19T11:21:35;4.00;;;3.60;;
10007;SDS011;5043;41.766;26.204;2022-08-19T11:24:05;5.15;;;4.13;;
10007;SDS011;5043;41.766;26.204;2022-08-19T11:26:33;4.32;;;3.92;;
10007;SDS011;5043;41.766;26.204;2022-08-19T11:28:59;4.72;;;3.83;;
10007;SDS011;5043;41.766;26.204;2022-08-19T11:31:27;4.63;;;4.07;;
10007;SDS011;5043;41.766;26.204;2022-08-19T11:33:59;4.75;;;4.22;;
10007;SDS011;5043;41.766;26.204;2022-08-19T11:36:26;8.43;;;3.85;;
10007;SDS011;5043;41.766;26.204;2022-08-19T11:38:53;5.45;;;3.90;;
10007;SDS011;5043;41.766;26.204;2022-08-19T11:41:19;5.22;;;4.10;;
10007;SDS011;5043;41.766;26.204;2022-08-19T11:43:47;4.50;;;3.70;;
10007;SDS011;5043;41.766;26.204;2022-08-19T11:46:15;4.28;;;3.88;;
10007;SDS011;5043;41.766;26.204;2022-08-19T11:48:41;3.97;;;3.67;;
10007;SDS011;5043;41.766;26.204;2022-08-19T11:51:09;4.30;;;4.00;;
10007;SDS011;5043;41.766;26.204;2022-08-19T11:53:41;5.38;;;4.00;;
10007;SDS011;5043;41.766;26.204;2022-08-19T11:56:07;4.63;;;3.90;;
10007;SDS011;5043;41.766;26.204;2022-08-19T11:58:33;5.40;;;4.95;;
10007;SDS011;5043;41.766;26.204;2022-08-19T12:01:00;5.85;;;4.20;;
10007;SDS011;5043;41.766;26.204;2022-08-19T12:03:26;4.30;;;4.00;;
10007;SDS011;5043;41.766;26.204;2022-08-19T12:05:52;6.13;;;4.00;;
10007;SDS011;5043;41.766;26.204;2022-08-19T12:08:18;5.43;;;4.95;;
10007;SDS011;5043;41.766;26.204;2022-08-19T12:10:43;4.78;;;4.38;;
10007;SDS011;5043;41.766;26.204;2022-08-19T12:13:11;5.88;;;3.80;;
10007;SDS011;5043;41.766;26.204;2022-08-19T12:15:40;5.63;;;4.40;;
10007;SDS011;5043;41.766;26.204;2022-08-19T12:18:06;5.13;;;4.63;;
10007;SDS011;5043;41.766;26.204;2022-08-19T12:20:37;5.32;;;4.20;;
10007;SDS011;5043;41.766;26.204;2022-08-19T12:23:05;4.50;;;4.13;;
10007;SDS011;5043;41.766;26.204;2022-08-19T12:25:31;4.82;;;4.15;;
10007;SDS011;5043;41.766;26.204;2022-08-19T12:27:57;6.07;;;4.47;;
10007;SDS011;5043;41.766;26.204;2022-08-19T12:30:23;6.78;;;4.63;;
10007;SDS011;5043;41.766;26.204;2022-08-19T12:32:49;6.18;;;4.60;;
10007;SDS011;5043;41.766;26.204;2022-08-19T12:35:16;4.25;;;3.85;;
10007;SDS011;5043;41.766;26.204;2022-08-19T12:37:44;4.70;;;4.18;;
10007;SDS011;5043;41.766;26.204;2022-08-19T12:40:11;4.22;;;3.90;;
10007;SDS011;5043;41.766;26.204;2022-08-19T12:42:37;6.65;;;4.13;;
10007;SDS011;5043;41.766;26.204;2022-08-19T12:45:08;4.72;;;4.32;;
10007;SDS011;5043;41.766;26.204;2022-08-19T12:47:38;5.13;;;4.40;;
10007;SDS011;5043;41.766;26.204;2022-08-19T12:50:05;5.95;;;5.35;;
10007;SDS011;5043;41.766;26.204;2022-08-19T12:52:34;6.53;;;4.47;;
10007;SDS011;5043;41.766;26.204;2022-08-19T12:55:05;5.03;;;4.57;;
10007;SDS011;5043;41.766;26.204;2022-08-19T12:57:32;4.85;;;4.40;;
10007;SDS011;5043;41.766;26.204;2022-08-19T13:00:07;5.15;;;4.65;;
10007;SDS011;5043;41.766;26.204;2022-08-19T13:02:37;4.97;;;4.07;;
10007;SDS011;5043;41.766;26.204;2022-08-19T13:05:04;7.75;;;4.40;;
10007;SDS011;5043;41.766;26.204;2022-08-19T13:07:33;6.60;;;4.18;;
10007;SDS011;5043;41.766;26.204;2022-08-19T13:09:59;5.18;;;4.72;;
10007;SDS011;5043;41.766;26.204;2022-08-19T13:12:26;5.53;;;4.47;;
10007;SDS011;5043;41.766;26.204;2022-08-19T13:14:55;8.93;;;4.40;;
10007;SDS011;5043;41.766;26.204;2022-08-19T13:17:20;4.88;;;4.47;;
10007;SDS011;5043;41.766;26.204;2022-08-19T13:19:47;6.18;;;5.47;;
10007;SDS011;5043;41.766;26.204;2022-08-19T13:22:12;6.60;;;4.75;;
10007;SDS011;5043;41.766;26.204;2022-08-19T13:24:38;5.03;;;4.63;;
10007;SDS011;5043;41.766;26.204;2022-08-19T13:27:03;6.55;;;5.00;;
10007;SDS011;5043;41.766;26.204;2022-08-19T13:29:29;5.53;;;5.13;;
10007;SDS011;5043;41.766;26.204;2022-08-19T13:32:14;5.93;;;5.45;;
10007;SDS011;5043;41.766;26.204;2022-08-19T13:34:58;6.57;;;5.90;;
10007;SDS011;5043;41.766;26.204;2022-08-19T13:37:23;7.90;;;4.65;;
10007;SDS011;5043;41.766;26.204;2022-08-19T13:40:22;7.57;;;5.00;;
10007;SDS011;5043;41.766;26.204;2022-08-19T13:42:52;10.27;;;5.60;;
10007;SDS011;5043;41.766;26.204;2022-08-19T13:45:21;6.50;;;4.47;;
10007;SDS011;5043;41.766;26.204;2022-08-19T13:47:50;5.45;;;4.95;;
10007;SDS011;5043;41.766;26.204;2022-08-19T13:50:19;7.80;;;4.78;;
10007;SDS011;5043;41.766;26.204;2022-08-19T13:52:50;21.30;;;4.82;;
10007;SDS011;5043;41.766;26.204;2022-08-19T13:55:16;4.85;;;4.35;;
10007;SDS011;5043;41.766;26.204;2022-08-19T13:57:42;5.45;;;4.38;;
10007;SDS011;5043;41.766;26.204;2022-08-19T14:00:10;6.25;;;4.10;;
10007;SDS011;5043;41.766;26.204;2022-08-19T14:02:39;5.00;;;4.40;;
10007;SDS011;5043;41.766;26.204;2022-08-19T14:05:06;9.80;;;4.50;;
10007;SDS011;5043;41.766;26.204;2022-08-19T14:07:33;6.78;;;4.55;;
10007;SDS011;5043;41.766;26.204;2022-08-19T14:09:59;4.35;;;3.95;;
10007;SDS011;5043;41.766;26.204;2022-08-19T14:12:24;5.25;;;4.45;;
10007;SDS011;5043;41.766;26.204;2022-08-19T14:14:50;5.03;;;4.05;;
10007;SDS011;5043;41.766;26.204;2022-08-19T14:17:15;4.25;;;3.88;;
10007;SDS011;5043;41.766;26.204;2022-08-19T14:19:41;6.90;;;4.70;;
10007;SDS011;5043;41.766;26.204;2022-08-19T14:22:07;6.78;;;4.18;;
10007;SDS011;5043;41.766;26.204;2022-08-19T14:24:33;4.03;;;3.63;;
10007;SDS011;5043;41.766;26.204;2022-08-19T14:26:59;5.53;;;4.78;;
10007;SDS011;5043;41.766;26.204;2022-08-19T14:29:25;7.22;;;4.07;;
10007;SDS011;5043;41.766;26.204;2022-08-19T14:31:52;5.30;;;4.50;;
10007;SDS011;5043;41.766;26.204;2022-08-19T14:34:18;6.28;;;4.38;;
10007;SDS011;5043;41.766;26.204;2022-08-19T14:36:43;5.88;;;4.40;;
10007;SDS011;5043;41.766;26.204;2022-08-19T14:39:10;4.68;;;3.85;;
10007;SDS011;5043;41.766;26.204;2022-08-19T14:41:35;4.47;;;4.07;;
10007;SDS011;5043;41.766;26.204;2022-08-19T14:44:01;5.93;;;4.45;;
10007;SDS011;5043;41.766;26.204;2022-08-19T14:46:27;8.65;;;4.57;;
10007;SDS011;5043;41.766;26.204;2022-08-19T14:48:54;5.43;;;3.95;;
10007;SDS011;5043;41.766;26.204;2022-08-19T14:51:21;6.57;;;4.45;;
10007;SDS011;5043;41.766;26.204;2022-08-19T14:53:48;3.97;;;3.58;;
10007;SDS011;5043;41.766;26.204;2022-08-19T14:56:15;10.35;;;4.80;;
10007;SDS011;5043;41.766;26.204;2022-08-19T14:58:44;6.50;;;4.25;;
10007;SDS011;5043;41.766;26.204;2022-08-19T15:01:10;9.20;;;4.60;;
10007;SDS011;5043;41.766;26.204;2022-08-19T15:03:37;7.88;;;4.90;;